Time;durP1;ratioP1;P1;durP2;ratioP2;P2;SDS_P1;SDS_P2;PMS_P1;PMS_P2;Temp;Humidity;BMP_temperature;BMP_pressure;BME280_temperature;BME280_humidity;BME280_pressure;Samples;Min_cycle;Max_cycle;Signal;HPM_P1;HPM_P2
2022/02/03 00:04:45;;;;;;;0.00;0.00;;;;;24.30;100294.00;;;;5118060;27;20031;-71
2022/02/03 00:07:23;;;;;;;0.00;0.00;;;;;24.30;100288.00;;;;5119260;27;20050;-71
2022/02/03 00:10:27;;;;;;;0.00;0.00;;;;;24.20;100307.00;;;;5115378;27;20274;-69
2022/02/03 00:27:51;;;;;;;0.00;0.00;;;;;23.70;100306.00;;;;5080314;27;20051;-71
2022/02/03 00:30:31;;;;;;;0.00;0.00;;;;;23.80;100308.00;;;;5107312;28;20135;-71
2022/02/03 00:50:23;;;;;;;0.00;0.00;;;;;23.80;100338.00;;;;5106719;28;20045;-72
2022/02/03 00:52:55;;;;;;;0.00;0.00;;;;;23.90;100326.00;;;;5106771;28;20161;-71
2022/02/03 00:55:25;;;;;;;0.00;0.00;;;;;23.90;100339.00;;;;5107133;28;20047;-72
2022/02/03 00:58:01;;;;;;;0.00;0.00;;;;;23.70;100333.00;;;;5110429;27;20076;-72
2022/02/03 01:00:34;;;;;;;0.98;0.47;;;;;23.70;100352.00;;;;5114196;27;20040;-72
2022/02/03 01:03:12;;;;;;;0.00;0.00;;;;;23.70;100338.00;;;;5102307;27;20036;-72
2022/02/03 01:05:47;;;;;;;0.00;0.00;;;;;23.60;100331.00;;;;5115802;27;20114;-71
2022/02/03 01:08:20;;;;;;;0.00;0.00;;;;;23.70;100345.00;;;;5113197;27;20044;-74
2022/02/03 01:11:01;;;;;;;0.00;0.00;;;;;23.60;100334.00;;;;5126932;27;20047;-73
2022/02/03 01:14:03;;;;;;;0.00;0.00;;;;;23.50;100354.00;;;;5126192;27;20047;-73
2022/02/03 01:44:28;;;;;;;0.00;0.00;;;;;23.10;100339.00;;;;5113533;28;20055;-73
2022/02/03 01:47:22;;;;;;;0.00;0.00;;;;;23.10;100340.00;;;;5114600;28;20504;-72
2022/02/03 01:52:25;;;;;;;0.00;0.00;;;;;23.30;100348.00;;;;5115611;27;20063;-73
2022/02/03 01:54:58;;;;;;;0.00;0.00;;;;;23.20;100335.00;;;;5111973;28;20047;-72
2022/02/03 01:57:38;;;;;;;0.00;0.00;;;;;23.10;100333.00;;;;5113485;28;20126;-71
2022/02/03 02:00:14;;;;;;;0.00;0.00;;;;;23.00;100323.00;;;;5115486;27;20516;-70
2022/02/03 02:03:09;;;;;;;0.00;0.00;;;;;23.10;100344.00;;;;5116679;27;20556;-72
2022/02/03 02:06:09;;;;;;;0.00;0.00;;;;;23.00;100356.00;;;;5081056;28;20067;-73
2022/02/03 02:08:46;;;;;;;0.00;0.00;;;;;22.90;100342.00;;;;5086513;28;20044;-73
2022/02/03 02:11:51;;;;;;;0.00;0.00;;;;;22.80;100347.00;;;;5085931;28;20044;-72
2022/02/03 02:15:43;;;;;;;0.00;0.00;;;;;22.80;100340.00;;;;5053746;28;20048;-71
2022/02/03 02:37:55;;;;;;;0.00;0.00;;;;;22.70;100330.00;;;;5089653;28;20130;-71
2022/02/03 02:40:45;;;;;;;0.00;0.00;;;;;22.60;100316.00;;;;5088481;28;20507;-72
2022/02/03 02:43:46;;;;;;;0.00;0.00;;;;;22.50;100321.00;;;;5088612;28;20407;-73
2022/02/03 02:46:31;;;;;;;0.00;0.00;;;;;22.40;100325.00;;;;5085090;28;20052;-72
2022/02/03 02:49:11;;;;;;;0.22;0.22;;;;;22.30;100323.00;;;;5089476;28;20072;-72
2022/02/03 02:51:52;;;;;;;0.00;0.00;;;;;22.20;100304.00;;;;5088457;28;20410;-72
2022/02/03 02:55:00;;;;;;;0.08;0.08;;;;;22.20;100326.00;;;;5088148;28;20040;-72
2022/02/03 03:03:19;;;;;;;0.00;0.00;;;;;22.10;100313.00;;;;5088805;28;20599;-73
2022/02/03 03:29:06;;;;;;;0.00;0.00;;;;;22.00;100316.00;;;;5068508;28;20052;-71
2022/02/03 03:37:26;;;;;;;0.00;0.00;;;;;22.00;100302.00;;;;5088646;28;20405;-72
2022/02/03 03:39:59;;;;;;;0.15;0.03;;;;;22.00;100293.00;;;;5088738;28;20114;-71
2022/02/03 03:42:32;;;;;;;1.35;0.63;;;;;22.00;100293.00;;;;5087629;28;20142;-70
2022/02/03 03:45:07;;;;;;;0.00;0.00;;;;;21.90;100288.00;;;;5088886;28;20055;-72
2022/02/03 03:47:41;;;;;;;0.00;0.00;;;;;21.80;100295.00;;;;5087969;28;20032;-72
2022/02/03 03:50:17;;;;;;;0.00;0.00;;;;;21.80;100290.00;;;;5088374;28;20064;-71
2022/02/03 03:52:55;;;;;;;0.00;0.00;;;;;21.70;100298.00;;;;5086709;28;20844;-70
2022/02/03 04:38:04;;;;;;;0.00;0.00;;;;;21.00;100267.00;;;;5088430;28;20040;-71
2022/02/03 05:03:26;;;;;;;0.00;0.00;;;;;20.90;100270.00;;;;5112843;28;20051;-73
2022/02/03 05:15:11;;;;;;;0.00;0.00;;;;;20.80;100274.00;;;;5086506;28;20036;-71
2022/02/03 05:21:03;;;;;;;0.00;0.00;;;;;20.70;100259.00;;;;5087196;28;20567;-72
2022/02/03 05:51:11;;;;;;;0.00;0.00;;;;;20.60;100225.00;;;;5086663;28;20055;-71
2022/02/03 06:05:35;;;;;;;0.00;0.00;;;;;20.60;100223.00;;;;5090184;28;20097;-70
2022/02/03 06:08:25;;;;;;;0.00;0.00;;;;;20.60;100227.00;;;;5091084;28;20093;-72
2022/02/03 06:13:54;;;;;;;0.00;0.00;;;;;20.50;100217.00;;;;5090825;28;20040;-71
2022/02/03 06:27:57;;;;;;;0.00;0.00;;;;;20.30;100221.00;;;;5074115;28;20075;-71
2022/02/03 06:30:26;;;;;;;0.00;0.00;;;;;20.30;100209.00;;;;5089931;28;20048;-72
2022/02/03 06:32:56;;;;;;;0.00;0.00;;;;;20.30;100203.00;;;;5089851;28;20048;-71
2022/02/03 06:35:25;;;;;;;0.00;0.00;;;;;20.20;100225.00;;;;5090154;28;20048;-72
2022/02/03 06:37:55;;;;;;;0.00;0.00;;;;;20.20;100217.00;;;;5089258;28;20561;-72
2022/02/03 06:40:24;;;;;;;0.00;0.00;;;;;20.20;100210.00;;;;5089753;28;20731;-72
2022/02/03 06:42:56;;;;;;;0.00;0.00;;;;;20.20;100198.00;;;;5089844;28;20043;-73
2022/02/03 06:45:41;;;;;;;0.00;0.00;;;;;20.20;100203.00;;;;5089833;28;20139;-72
2022/02/03 06:48:16;;;;;;;0.00;0.00;;;;;20.20;100210.00;;;;5089591;28;20123;-72
2022/02/03 06:50:52;;;;;;;0.00;0.00;;;;;20.20;100218.00;;;;5089706;28;20052;-72
2022/02/03 06:53:25;;;;;;;0.00;0.00;;;;;20.10;100218.00;;;;5089333;28;20112;-72
2022/02/03 06:56:04;;;;;;;0.00;0.00;;;;;20.10;100215.00;;;;5089543;28;20545;-71
2022/02/03 06:58:40;;;;;;;0.00;0.00;;;;;20.10;100227.00;;;;5087787;28;20071;-71
2022/02/03 07:01:17;;;;;;;0.00;0.00;;;;;20.10;100204.00;;;;5089309;28;20066;-73
2022/02/03 07:03:57;;;;;;;0.00;0.00;;;;;20.10;100196.00;;;;5089217;28;20043;-72
2022/02/03 07:06:29;;;;;;;0.00;0.00;;;;;20.10;100214.00;;;;5089315;28;20048;-72
2022/02/03 07:09:07;;;;;;;0.00;0.00;;;;;20.00;100217.00;;;;5088889;28;20044;-72
2022/02/03 07:11:39;;;;;;;0.00;0.00;;;;;19.90;100233.00;;;;5089180;28;20081;-72
2022/02/03 07:14:10;;;;;;;0.00;0.00;;;;;20.00;100220.00;;;;5089162;28;20360;-71
2022/02/03 07:16:47;;;;;;;0.00;0.00;;;;;19.90;100218.00;;;;5089417;28;20058;-71
2022/02/03 07:19:17;;;;;;;0.00;0.00;;;;;20.00;100234.00;;;;5089301;28;20068;-71
2022/02/03 07:21:47;;;;;;;0.00;0.00;;;;;20.00;100219.00;;;;5089290;28;20052;-72
2022/02/03 07:24:17;;;;;;;0.00;0.00;;;;;20.00;100221.00;;;;5088998;28;20031;-71
2022/02/03 07:26:46;;;;;;;0.00;0.00;;;;;20.00;100217.00;;;;5088627;28;20491;-71
2022/02/03 07:29:16;;;;;;;0.00;0.00;;;;;20.00;100207.00;;;;5088740;28;20089;-72
2022/02/03 07:31:46;;;;;;;0.00;0.00;;;;;20.00;100224.00;;;;5088467;28;20533;-71
2022/02/03 07:34:18;;;;;;;0.00;0.00;;;;;20.00;100213.00;;;;5088423;28;20055;-72
2022/02/03 07:36:48;;;;;;;0.00;0.00;;;;;19.90;100222.00;;;;5087798;28;20040;-71
2022/02/03 07:39:17;;;;;;;0.00;0.00;;;;;20.00;100217.00;;;;5089174;28;20111;-71
2022/02/03 07:41:46;;;;;;;0.00;0.00;;;;;20.10;100223.00;;;;5087007;28;20048;-71
2022/02/03 07:44:16;;;;;;;0.00;0.00;;;;;20.20;100211.00;;;;5088122;28;20054;-72
2022/02/03 07:46:46;;;;;;;0.00;0.00;;;;;20.20;100214.00;;;;5087847;28;20107;-70
2022/02/03 07:49:15;;;;;;;0.00;0.00;;;;;20.10;100212.00;;;;5088835;28;20059;-71
2022/02/03 07:51:44;;;;;;;0.00;0.00;;;;;20.00;100219.00;;;;5087811;28;20109;-72
2022/02/03 07:54:14;;;;;;;0.00;0.00;;;;;20.00;100222.00;;;;5087957;28;20051;-70
2022/02/03 07:56:43;;;;;;;0.00;0.00;;;;;20.00;100235.00;;;;5086794;28;20047;-72
2022/02/03 07:59:13;;;;;;;0.00;0.00;;;;;19.90;100232.00;;;;5086346;28;20051;-71
2022/02/03 08:01:42;;;;;;;0.00;0.00;;;;;19.90;100243.00;;;;5088628;28;20040;-71
2022/02/03 08:04:14;;;;;;;0.03;0.03;;;;;19.90;100225.00;;;;5088654;28;20421;-70
2022/02/03 08:06:46;;;;;;;0.00;0.00;;;;;19.90;100239.00;;;;5088214;28;20039;-70
2022/02/03 08:09:30;;;;;;;0.00;0.00;;;;;19.90;100232.00;;;;5087780;28;20051;-70
2022/02/03 08:12:06;;;;;;;0.00;0.00;;;;;19.80;100219.00;;;;5087892;28;20051;-70
2022/02/03 08:14:41;;;;;;;0.00;0.00;;;;;19.80;100241.00;;;;5086497;28;20423;-71
2022/02/03 08:17:17;;;;;;;0.00;0.00;;;;;19.90;100229.00;;;;5087522;28;20043;-71
2022/02/03 08:20:01;;;;;;;0.00;0.00;;;;;19.90;100242.00;;;;5087738;28;20036;-72
2022/02/03 08:22:42;;;;;;;0.00;0.00;;;;;19.80;100240.00;;;;5087695;28;20044;-71
2022/02/03 08:25:19;;;;;;;0.00;0.00;;;;;19.80;100237.00;;;;5085705;28;20044;-72
2022/02/03 08:32:54;;;;;;;0.00;0.00;;;;;19.60;100265.00;;;;5087656;28;20051;-70
2022/02/03 08:35:36;;;;;;;0.00;0.00;;;;;19.60;100266.00;;;;5087508;28;20051;-70
2022/02/03 08:38:16;;;;;;;0.00;0.00;;;;;19.70;100267.00;;;;5087780;28;20048;-72
2022/02/03 08:41:00;;;;;;;0.22;0.22;;;;;19.70;100256.00;;;;5087533;28;20040;-72
2022/02/03 08:43:32;;;;;;;0.00;0.00;;;;;19.70;100256.00;;;;5087415;28;20530;-72
2022/02/03 08:46:06;;;;;;;0.00;0.00;;;;;19.60;100260.00;;;;5086984;28;20043;-72
2022/02/03 08:48:36;;;;;;;0.00;0.00;;;;;19.60;100262.00;;;;5087384;28;20044;-72
2022/02/03 08:51:07;;;;;;;0.00;0.00;;;;;19.60;100262.00;;;;5087316;28;20066;-71
2022/02/03 08:53:57;;;;;;;;;;;;;19.60;100281.00;;;;5087425;28;20035;-72
2022/02/03 08:56:50;;;;;;;0.00;0.00;;;;;19.60;100256.00;;;;5087332;28;19920;-72
2022/02/03 09:40:54;;;;;;;0.00;0.00;;;;;20.40;100296.00;;;;5086190;28;20399;-71
2022/02/03 09:54:57;;;;;;;0.00;0.00;;;;;20.90;100303.00;;;;5086541;28;20499;-71
2022/02/03 10:03:19;;;;;;;;;;;;;21.40;100307.00;;;;5085602;28;20419;-71
2022/02/03 10:06:07;;;;;;;0.55;0.55;;;;;21.80;100282.00;;;;5086198;28;20447;-73
2022/02/03 10:08:44;;;;;;;0.00;0.00;;;;;23.70;100222.00;;;;5085686;28;20032;-72
2022/02/03 10:11:25;;;;;;;0.00;0.00;;;;;24.10;100280.00;;;;5086367;28;20051;-73
2022/02/03 10:14:02;;;;;;;0.00;0.00;;;;;23.80;100287.00;;;;5086015;28;20511;-71
2022/02/03 10:16:34;;;;;;;0.00;0.00;;;;;24.00;100261.00;;;;5085113;28;20471;-73
2022/02/03 10:19:13;;;;;;;0.00;0.00;;;;;23.60;100272.00;;;;5086832;28;20121;-72
2022/02/03 10:21:47;;;;;;;0.00;0.00;;;;;23.50;100280.00;;;;5086378;28;20058;-71
2022/02/03 10:24:18;;;;;;;0.00;0.00;;;;;23.70;100280.00;;;;5085520;28;20044;-73
2022/02/03 10:26:51;;;;;;;0.00;0.00;;;;;23.50;100296.00;;;;5084806;28;20040;-72
2022/02/03 10:29:29;;;;;;;0.00;0.00;;;;;23.90;100286.00;;;;5086160;28;20105;-72
2022/02/03 10:31:59;;;;;;;0.00;0.00;;;;;24.40;100275.00;;;;5086582;28;20097;-72
2022/02/03 10:34:32;;;;;;;0.10;0.10;;;;;25.90;100197.00;;;;5085403;28;20040;-72
2022/02/03 10:37:13;;;;;;;0.00;0.00;;;;;30.80;100108.00;;;;5083933;28;20534;-72
2022/02/03 10:45:37;;;;;;;0.00;0.00;;;;;34.40;100100.00;;;;5086443;28;20312;-72
2022/02/03 10:50:54;;;;;;;0.10;0.10;;;;;35.10;100100.00;;;;5089863;28;20062;-72
2022/02/03 10:54:11;;;;;;;0.00;0.00;;;;;36.00;100093.00;;;;5089672;28;20063;-74
2022/02/03 11:00:08;;;;;;;0.10;0.10;;;;;33.40;100192.00;;;;5089914;28;20082;-73
2022/02/03 11:12:56;;;;;;;0.10;0.10;;;;;37.20;100113.00;;;;5089479;28;20249;-71
2022/02/03 11:15:29;;;;;;;0.00;0.00;;;;;37.60;100089.00;;;;5089167;28;20040;-72
2022/02/03 11:18:06;;;;;;;0.00;0.00;;;;;37.50;100107.00;;;;5088900;28;20044;-73
2022/02/03 11:20:39;;;;;;;0.00;0.00;;;;;38.10;100108.00;;;;5088995;28;20040;-72
2022/02/03 11:23:21;;;;;;;0.10;0.08;;;;;38.00;100092.00;;;;5086024;28;20541;-73
2022/02/03 11:29:19;;;;;;;0.00;0.00;;;;;38.50;100088.00;;;;5087016;28;20047;-73
2022/02/03 11:31:53;;;;;;;0.00;0.00;;;;;39.50;100088.00;;;;5077277;28;20314;-73
2022/02/03 11:40:22;;;;;;;0.00;0.00;;;;;39.00;100091.00;;;;5088840;28;20127;-72
2022/02/03 11:54:31;;;;;;;0.00;0.00;;;;;38.00;100107.00;;;;5088032;28;20077;-72
2022/02/03 12:19:43;;;;;;;0.20;0.20;;;;;33.90;100245.00;;;;5087225;28;20059;-73
2022/02/03 12:22:43;;;;;;;0.00;0.00;;;;;34.30;100249.00;;;;5086768;28;20068;-72
2022/02/03 12:25:34;;;;;;;0.17;0.17;;;;;33.90;100245.00;;;;5083336;28;20442;-73
2022/02/03 12:28:20;;;;;;;0.00;0.00;;;;;33.80;100244.00;;;;5082937;28;20076;-73
2022/02/03 12:31:11;;;;;;;0.00;0.00;;;;;34.10;100249.00;;;;5085877;28;20452;-72
2022/02/03 12:39:15;;;;;;;0.00;0.00;;;;;34.90;100248.00;;;;5087455;28;20498;-72
2022/02/03 12:42:03;;;;;;;0.00;0.00;;;;;34.70;100236.00;;;;5086665;28;20044;-74
2022/02/03 12:44:37;;;;;;;0.00;0.00;;;;;35.00;100231.00;;;;5087382;28;20040;-72
2022/02/03 12:47:07;;;;;;;0.10;0.10;;;;;34.90;100239.00;;;;5087364;28;20537;-72
2022/02/03 12:49:40;;;;;;;0.00;0.00;;;;;34.60;100235.00;;;;5086615;28;20059;-72
2022/02/03 12:52:23;;;;;;;10.90;0.20;;;;;35.20;100250.00;;;;5086533;28;20069;-73
2022/02/03 12:54:53;;;;;;;0.00;0.00;;;;;34.90;100234.00;;;;5087016;28;20054;-73
2022/02/03 12:57:35;;;;;;;0.08;0.08;;;;;35.00;100232.00;;;;5087011;28;20055;-72
2022/02/03 13:00:27;;;;;;;0.00;0.00;;;;;35.10;100240.00;;;;5087532;28;20124;-73
2022/02/03 13:03:18;;;;;;;0.00;0.00;;;;;35.70;100245.00;;;;5087081;28;20426;-72
2022/02/03 13:06:02;;;;;;;0.00;0.00;;;;;35.50;100244.00;;;;5085316;28;20093;-71
2022/02/03 13:08:45;;;;;;;0.10;0.10;;;;;35.50;100230.00;;;;5086913;28;20816;-72
2022/02/03 13:17:17;;;;;;;0.00;0.00;;;;;35.80;100239.00;;;;5086912;28;20445;-70
2022/02/03 13:20:24;;;;;;;0.00;0.00;;;;;36.50;100239.00;;;;5085380;28;20058;-72
2022/02/03 13:23:05;;;;;;;1.17;0.20;;;;;35.80;100257.00;;;;5086235;28;20058;-73
2022/02/03 13:25:55;;;;;;;0.00;0.00;;;;;35.40;100233.00;;;;5086694;28;20040;-71
2022/02/03 13:31:22;;;;;;;0.73;0.22;;;;;36.10;100238.00;;;;5086796;28;19924;-73
2022/02/03 13:34:07;;;;;;;0.00;0.00;;;;;36.40;100242.00;;;;5086195;28;20545;-72
2022/02/03 13:36:42;;;;;;;0.00;0.00;;;;;36.40;100233.00;;;;5086663;28;20052;-73
2022/02/03 13:39:25;;;;;;;0.00;0.00;;;;;36.70;100220.00;;;;5086622;28;20039;-72
2022/02/03 13:42:10;;;;;;;0.00;0.00;;;;;37.30;100219.00;;;;5085760;28;20550;-73
2022/02/03 13:44:40;;;;;;;0.00;0.00;;;;;37.50;100234.00;;;;5086422;28;20829;-73
2022/02/03 13:47:19;;;;;;;;;;;;;36.50;100228.00;;;;5086574;28;21146;-72
2022/02/03 13:50:25;;;;;;;0.10;0.10;;;;;36.30;100228.00;;;;5084769;28;19926;-72
2022/02/03 13:53:16;;;;;;;0.00;0.00;;;;;36.80;100235.00;;;;5068827;28;20138;-72
2022/02/03 14:21:36;;;;;;;0.40;0.40;;;;;37.20;100194.00;;;;5086483;28;20076;-72
2022/02/03 14:29:28;;;;;;;0.00;0.00;;;;;38.10;100184.00;;;;5090060;28;20509;-73
2022/02/03 14:34:35;;;;;;;0.00;0.00;;;;;38.30;100174.00;;;;5090112;28;20058;-73
2022/02/03 14:37:13;;;;;;;0.08;0.08;;;;;38.50;100166.00;;;;5089131;28;20082;-73
2022/02/03 14:42:13;;;;;;;0.00;0.00;;;;;38.80;100164.00;;;;5090102;28;20076;-72
2022/02/03 14:44:43;;;;;;;0.00;0.00;;;;;38.40;100154.00;;;;5089370;28;20040;-73
2022/02/03 14:47:12;;;;;;;0.00;0.00;;;;;38.40;100147.00;;;;5089594;28;20051;-72
2022/02/03 14:49:44;;;;;;;0.68;0.25;;;;;38.30;100140.00;;;;5089780;28;20040;-73
2022/02/03 14:52:31;;;;;;;0.00;0.00;;;;;38.10;100147.00;;;;5089776;28;20043;-73
2022/02/03 14:58:07;;;;;;;0.13;0.13;;;;;38.60;100142.00;;;;5087798;28;20582;-72
2022/02/03 15:00:45;;;;;;;0.00;0.00;;;;;38.70;100148.00;;;;5089285;28;20066;-72
2022/02/03 15:03:16;;;;;;;0.00;0.00;;;;;38.70;100128.00;;;;5088826;28;20055;-71
2022/02/03 15:05:50;;;;;;;0.00;0.00;;;;;39.00;100126.00;;;;5089438;28;20044;-72
2022/02/03 15:08:31;;;;;;;0.10;0.10;;;;;39.00;100127.00;;;;5088510;28;20048;-74
2022/02/03 15:13:45;;;;;;;0.00;0.00;;;;;39.10;100116.00;;;;5087237;28;20139;-70
2022/02/03 15:16:16;;;;;;;0.00;0.00;;;;;39.20;100126.00;;;;5089643;28;20036;-72
2022/02/03 15:19:06;;;;;;;0.00;0.00;;;;;39.50;100122.00;;;;5089136;28;20040;-71
2022/02/03 15:21:36;;;;;;;0.35;0.20;;;;;39.60;100112.00;;;;5088727;28;20507;-71
2022/02/03 15:24:05;;;;;;;0.28;0.13;;;;;39.30;100098.00;;;;5089339;28;20055;-72
2022/02/03 15:26:38;;;;;;;0.10;0.10;;;;;39.60;100099.00;;;;5088786;28;20040;-72
2022/02/03 15:29:10;;;;;;;0.00;0.00;;;;;39.70;100077.00;;;;5088687;28;20040;-73
2022/02/03 15:31:42;;;;;;;0.70;0.55;;;;;39.40;100092.00;;;;5087578;28;20512;-73
2022/02/03 15:34:31;;;;;;;0.00;0.00;;;;;39.60;100077.00;;;;5088364;28;20054;-71
2022/02/03 15:37:11;;;;;;;0.75;0.20;;;;;39.80;100083.00;;;;5088918;28;20123;-71
2022/02/03 15:39:50;;;;;;;0.00;0.00;;;;;40.00;100084.00;;;;5087043;28;20036;-70
2022/02/03 15:42:28;;;;;;;0.00;0.00;;;;;40.50;100081.00;;;;5087422;28;21058;-73
2022/02/03 15:44:59;;;;;;;0.20;0.20;;;;;40.40;100073.00;;;;5088930;28;20085;-73
2022/02/03 15:47:35;;;;;;;0.00;0.00;;;;;40.30;100063.00;;;;5089562;28;20039;-71
2022/02/03 16:17:45;;;;;;;0.00;0.00;;;;;41.00;100026.00;;;;5088458;28;20043;-71
2022/02/03 16:20:24;;;;;;;0.00;0.00;;;;;41.40;100020.00;;;;5107278;28;20032;-71
2022/02/03 16:50:59;;;;;;;0.00;0.00;;;;;42.10;99998.00;;;;5087590;28;20579;-70
2022/02/03 16:53:28;;;;;;;0.00;0.00;;;;;41.70;99972.00;;;;5088199;28;20044;-73
2022/02/03 16:56:00;;;;;;;0.03;0.03;;;;;41.50;99989.00;;;;5087673;28;20044;-74
2022/02/03 16:58:33;;;;;;;0.22;0.22;;;;;40.90;100001.00;;;;5086997;28;20472;-74
2022/02/03 17:01:06;;;;;;;0.00;0.00;;;;;40.10;99994.00;;;;5086761;28;20089;-72
2022/02/03 17:03:35;;;;;;;0.00;0.00;;;;;39.50;99988.00;;;;5088048;28;20525;-70
2022/02/03 17:06:06;;;;;;;0.00;0.00;;;;;39.90;99976.00;;;;5087342;28;20497;-70
2022/02/03 17:08:36;;;;;;;0.00;0.00;;;;;39.90;99972.00;;;;5087173;28;20376;-71
2022/02/03 17:11:09;;;;;;;0.20;0.20;;;;;39.00;99979.00;;;;5085564;28;20070;-71
2022/02/03 17:13:41;;;;;;;0.00;0.00;;;;;38.30;99977.00;;;;5086302;28;20048;-72
2022/02/03 17:16:14;;;;;;;0.00;0.00;;;;;38.00;99967.00;;;;5086302;28;20039;-70
2022/02/03 17:18:45;;;;;;;0.00;0.00;;;;;38.90;99918.00;;;;5086821;28;20387;-72
2022/02/03 17:21:14;;;;;;;0.00;0.00;;;;;39.70;99941.00;;;;5087469;28;20149;-71
2022/02/03 17:23:44;;;;;;;0.00;0.00;;;;;39.60;99947.00;;;;5084982;28;20552;-71
2022/02/03 17:26:24;;;;;;;0.00;0.00;;;;;39.60;99943.00;;;;5086850;28;20052;-72
2022/02/03 17:29:49;;;;;;;;;;;;;39.70;99905.00;;;;5086975;28;20047;-72
2022/02/03 17:32:02;;;;;;;0.00;0.00;;;;;41.20;99872.00;;;;5083814;28;19924;-72
2022/02/03 18:02:54;;;;;;;0.13;0.10;;;;;43.80;99826.00;;;;5086145;28;20388;-72
2022/02/03 18:06:24;;;;;;;0.03;0.03;;;;;42.80;99826.00;;;;5091283;28;20118;-72
2022/02/03 18:31:04;;;;;;;0.25;0.10;;;;;41.30;99749.00;;;;5089641;28;20071;-72
2022/02/03 18:52:16;;;;;;;0.00;0.00;;;;;37.70;99804.00;;;;5089849;28;20579;-71
2022/02/03 18:57:45;;;;;;;0.00;0.00;;;;;46.30;99729.00;;;;5088266;28;20086;-71
2022/02/03 19:25:52;;;;;;;0.00;0.00;;;;;36.10;99801.00;;;;5088848;28;20036;-69
2022/02/03 19:28:48;;;;;;;0.00;0.00;;;;;36.30;99801.00;;;;5088740;28;20036;-70
2022/02/03 20:11:55;;;;;;;0.00;0.00;;;;;33.60;99777.00;;;;5088362;28;20418;-70
2022/02/03 20:14:24;;;;;;;0.00;0.00;;;;;33.40;99777.00;;;;5087974;28;20544;-70
2022/02/03 20:16:53;;;;;;;0.00;0.00;;;;;33.30;99778.00;;;;5087922;28;20544;-69
2022/02/03 20:19:27;;;;;;;0.00;0.00;;;;;33.20;99763.00;;;;5087770;28;20052;-70
2022/02/03 20:21:56;;;;;;;0.88;0.88;;;;;33.00;99767.00;;;;5087884;28;20498;-70
2022/02/03 20:24:26;;;;;;;0.00;0.00;;;;;32.80;99767.00;;;;5086818;28;20502;-69
2022/02/03 20:26:55;;;;;;;0.00;0.00;;;;;32.70;99760.00;;;;5086200;28;21000;-72
2022/02/03 20:29:25;;;;;;;0.00;0.00;;;;;32.60;99758.00;;;;5087348;28;20052;-70
2022/02/03 20:31:54;;;;;;;0.00;0.00;;;;;32.50;99753.00;;;;5088107;28;20048;-71
2022/02/03 20:34:24;;;;;;;0.00;0.00;;;;;32.30;99763.00;;;;5087616;28;20040;-71
2022/02/03 20:36:53;;;;;;;0.00;0.00;;;;;32.20;99758.00;;;;5087670;28;20415;-71
2022/02/03 20:39:23;;;;;;;0.00;0.00;;;;;32.00;99761.00;;;;5087744;28;20461;-73
2022/02/03 20:41:52;;;;;;;0.00;0.00;;;;;31.90;99765.00;;;;5086826;28;20044;-73
2022/02/03 20:44:22;;;;;;;0.00;0.00;;;;;31.80;99785.00;;;;5087677;28;20588;-71
2022/02/03 20:46:51;;;;;;;0.00;0.00;;;;;31.70;99776.00;;;;5087538;28;20552;-73
2022/02/03 20:49:21;;;;;;;0.20;0.10;;;;;31.60;99772.00;;;;5087523;28;20563;-72
2022/02/03 20:51:52;;;;;;;0.00;0.00;;;;;31.50;99771.00;;;;5087069;28;20491;-70
2022/02/03 20:54:22;;;;;;;0.00;0.00;;;;;31.50;99769.00;;;;5086422;28;20147;-71
2022/02/03 20:56:51;;;;;;;0.00;0.00;;;;;31.40;99781.00;;;;5087200;28;20110;-72
2022/02/03 20:59:27;;;;;;;0.00;0.00;;;;;31.30;99769.00;;;;5087241;28;20447;-70
2022/02/03 21:02:01;;;;;;;0.00;0.00;;;;;31.20;99775.00;;;;5087164;28;20619;-71
2022/02/03 21:04:47;;;;;;;0.30;0.30;;;;;31.10;99774.00;;;;5087468;28;20036;-70
2022/02/03 21:07:17;;;;;;;0.00;0.00;;;;;30.90;99771.00;;;;5087492;28;20044;-72
2022/02/03 21:09:48;;;;;;;0.00;0.00;;;;;30.90;99747.00;;;;5087266;28;20521;-72
2022/02/03 21:12:18;;;;;;;0.00;0.00;;;;;30.80;99755.00;;;;5087308;28;20047;-72
2022/02/03 21:14:53;;;;;;;0.00;0.00;;;;;30.70;99771.00;;;;5086574;28;20612;-70
2022/02/03 21:17:25;;;;;;;0.00;0.00;;;;;30.70;99768.00;;;;5086699;28;20396;-72
2022/02/03 21:20:02;;;;;;;0.00;0.00;;;;;30.60;99759.00;;;;5085613;28;20053;-70
2022/02/03 21:22:32;;;;;;;0.00;0.00;;;;;30.60;99743.00;;;;5084769;28;20051;-69
2022/02/03 21:25:04;;;;;;;0.00;0.00;;;;;30.50;99763.00;;;;5086594;28;20051;-70
2022/02/03 21:27:34;;;;;;;0.00;0.00;;;;;30.50;99747.00;;;;5085406;28;20067;-71
2022/02/03 21:30:06;;;;;;;0.00;0.00;;;;;30.40;99741.00;;;;5087110;28;20542;-70
2022/02/03 21:32:37;;;;;;;0.10;0.10;;;;;30.40;99744.00;;;;5085972;28;20047;-73
2022/02/03 21:35:09;;;;;;;0.00;0.00;;;;;30.40;99751.00;;;;5085725;28;20036;-72
2022/02/03 21:37:39;;;;;;;0.28;0.28;;;;;30.40;99745.00;;;;5086248;28;20321;-69
2022/02/03 21:40:10;;;;;;;0.30;0.30;;;;;30.60;99759.00;;;;5084542;28;20415;-71
2022/02/03 21:42:39;;;;;;;0.20;0.20;;;;;30.70;99756.00;;;;5085987;28;20044;-73
2022/02/03 21:45:09;;;;;;;0.10;0.05;;;;;30.70;99761.00;;;;5086245;28;20040;-75
2022/02/03 21:47:39;;;;;;;0.00;0.00;;;;;30.70;99755.00;;;;5087298;28;20499;-71
2022/02/03 21:50:09;;;;;;;0.00;0.00;;;;;30.60;99766.00;;;;5085843;28;20044;-71
2022/02/03 21:52:54;;;;;;;0.00;0.00;;;;;30.50;99768.00;;;;5085855;28;20150;-71
2022/02/03 21:55:27;;;;;;;0.00;0.00;;;;;30.40;99756.00;;;;5085602;28;20044;-70
2022/02/03 21:57:56;;;;;;;0.00;0.00;;;;;30.30;99766.00;;;;5086321;28;20052;-72
2022/02/03 22:00:26;;;;;;;0.00;0.00;;;;;30.30;99765.00;;;;5086401;28;20044;-71
2022/02/03 22:02:56;;;;;;;0.00;0.00;;;;;30.20;99771.00;;;;5086102;28;20055;-73
2022/02/03 22:05:27;;;;;;;0.00;0.00;;;;;30.10;99767.00;;;;5086029;28;20048;-72
2022/02/03 22:07:57;;;;;;;0.00;0.00;;;;;30.00;99748.00;;;;5085820;28;20398;-72
2022/02/03 22:10:27;;;;;;;0.00;0.00;;;;;29.80;99756.00;;;;5084677;28;20528;-71
2022/02/03 22:12:56;;;;;;;0.00;0.00;;;;;29.50;99758.00;;;;5086471;28;20072;-71
2022/02/03 22:15:27;;;;;;;0.00;0.00;;;;;29.20;99749.00;;;;5085556;28;20048;-71
2022/02/03 22:17:57;;;;;;;0.00;0.00;;;;;28.90;99759.00;;;;5086952;28;20063;-71
2022/02/03 22:20:40;;;;;;;0.00;0.00;;;;;28.80;99747.00;;;;5085502;28;20048;-73
2022/02/03 22:29:04;;;;;;;0.00;0.00;;;;;28.30;99772.00;;;;5085826;28;20548;-70
2022/02/03 22:45:59;;;;;;;0.00;0.00;;;;;27.20;99751.00;;;;5088288;28;20522;-73
2022/02/03 22:48:28;;;;;;;0.00;0.00;;;;;27.20;99755.00;;;;5089353;28;20069;-72
2022/02/03 22:51:00;;;;;;;0.00;0.00;;;;;27.20;99778.00;;;;5089320;28;20086;-72
2022/02/03 22:53:35;;;;;;;0.00;0.00;;;;;27.10;99788.00;;;;5087520;28;20537;-70
2022/02/03 22:56:08;;;;;;;0.00;0.00;;;;;27.00;99793.00;;;;5088398;28;20044;-72
2022/02/03 23:01:35;;;;;;;0.00;0.00;;;;;26.80;99791.00;;;;5072651;28;20059;-71
2022/02/03 23:04:05;;;;;;;0.05;0.05;;;;;26.70;99798.00;;;;5089553;28;20036;-70
2022/02/03 23:06:34;;;;;;;0.00;0.00;;;;;26.60;99784.00;;;;5089591;28;20048;-72
2022/02/03 23:09:14;;;;;;;0.00;0.00;;;;;26.60;99797.00;;;;5088093;28;20494;-69
2022/02/03 23:15:04;;;;;;;0.00;0.00;;;;;26.60;99792.00;;;;5088819;28;20040;-70
2022/02/03 23:22:31;;;;;;;0.10;0.10;;;;;26.50;99795.00;;;;5089047;28;20390;-70
2022/02/03 23:25:02;;;;;;;0.00;0.00;;;;;26.50;99786.00;;;;5088964;28;20044;-71
2022/02/03 23:27:59;;;;;;;0.00;0.00;;;;;26.40;99802.00;;;;5088952;28;20044;-73
2022/02/03 23:30:29;;;;;;;0.00;0.00;;;;;26.40;99810.00;;;;5089047;28;20126;-72
2022/02/03 23:32:58;;;;;;;0.00;0.00;;;;;26.40;99803.00;;;;5088640;28;20131;-71
2022/02/03 23:35:30;;;;;;;0.00;0.00;;;;;26.40;99821.00;;;;5085985;28;20105;-72
2022/02/03 23:38:26;;;;;;;0.00;0.00;;;;;26.40;99821.00;;;;5085527;28;20052;-75
